This is the latest recevied weather packets stored in our database for station/object K7VLL. If no packets are shown the sender has not sent any weather packets the latest 10 day(s).
| Time | Temp. | Humidity | Pressure | Rain* | Wind** | Luminosity | Snow |
|---|---|---|---|---|---|---|---|
| 1778398179 | 23.89° C | 19% | 1088 hPa | 0 mm | - | 0 W/m² | - |
| 1778396377 | 26.11° C | 17% | 1087.9 hPa | 0 mm | - | 0 W/m² | - |
| 1778394576 | 27.22° C | 13% | 1087.7 hPa | 0 mm | - | 0 W/m² | - |
| 1778392776 | 27.78° C | 12% | 1087.4 hPa | 0 mm | - | 0 W/m² | - |
| 1778390976 | 25.56° C | 14% | 1087.1 hPa | 0 mm | - | 0 W/m² | - |
| 1778389173 | 26.67° C | 13% | 1086.9 hPa | 0 mm | - | 0 W/m² | - |
| 1778387372 | 28.89° C | 11% | 1086.3 hPa | 0 mm | - | 0 W/m² | - |
| 1778385568 | 30° C | 11% | 1086.2 hPa | 0 mm | - | 0 W/m² | - |
| 1778383764 | 31.11° C | 9% | 1085.7 hPa | 0 mm | - | 0 W/m² | - |
| 1778381959 | 32.22° C | 8% | 1085.2 hPa | 0 mm | - | 0 W/m² | - |
| 1778380156 | 32.78° C | 8% | 1084.7 hPa | 0 mm | - | 0 W/m² | - |
| 1778378357 | 33.33° C | 8% | 1084.6 hPa | 0 mm | - | 8 W/m² | - |
| 1778376556 | 33.89° C | 8% | 1084.2 hPa | 0 mm | - | 20 W/m² | - |
| 1778374755 | 35.56° C | 7% | 1084.3 hPa | 0 mm | - | 33 W/m² | - |
| 1778372952 | 36.11° C | 8% | 1084.7 hPa | 0 mm | - | 139 W/m² | - |
| 1778371151 | 37.22° C | 6% | 1084.7 hPa | 0 mm | - | 224 W/m² | - |
| 1778369350 | 37.22° C | 7% | 1085 hPa | 0 mm | - | 311 W/m² | - |
| 1778367548 | 37.22° C | 7% | 1085.4 hPa | 0 mm | - | 392 W/m² | - |
| 1778365745 | 39.44° C | 6% | 1085.4 hPa | 0 mm | - | 473 W/m² | - |
| 1778363944 | 37.78° C | 7% | 1085.8 hPa | 0 mm | - | 541 W/m² | - |
| 1778362143 | 38.33° C | 7% | 1086.5 hPa | 0 mm | - | 603 W/m² | - |
| 1778360338 | 38.33° C | 8% | 1086.9 hPa | 0 mm | - | 649 W/m² | - |
| 1778358532 | 37.22° C | 8% | 1087.5 hPa | 0 mm | - | 687 W/m² | - |
| 1778356731 | 36.11° C | 8% | 1088 hPa | 0 mm | - | 710 W/m² | - |
| 1778354931 | 35.56° C | 9% | 1088.2 hPa | 0 mm | - | 719 W/m² | - |
* Rain latest hour (hover to see other rain measurements)
** Current wind speed in m/s (hover to see current wind gust speed)